sensor_id;sensor_type;location;lat;lon;timestamp;P1;durP1;ratioP1;P2;durP2;ratioP2
12302;SDS011;6214;48.012;7.862;2022-08-27T00:01:16;10.15;;;7.30;;
12302;SDS011;6214;48.012;7.862;2022-08-27T00:03:43;8.80;;;7.10;;
12302;SDS011;6214;48.012;7.862;2022-08-27T00:06:14;8.70;;;7.90;;
12302;SDS011;6214;48.012;7.862;2022-08-27T00:08:44;8.32;;;7.30;;
12302;SDS011;6214;48.012;7.862;2022-08-27T00:11:12;9.02;;;7.70;;
12302;SDS011;6214;48.012;7.862;2022-08-27T00:13:40;9.25;;;8.00;;
12302;SDS011;6214;48.012;7.862;2022-08-27T00:16:08;8.63;;;7.35;;
12302;SDS011;6214;48.012;7.862;2022-08-27T00:18:37;8.87;;;7.97;;
12302;SDS011;6214;48.012;7.862;2022-08-27T00:21:05;8.85;;;7.95;;
12302;SDS011;6214;48.012;7.862;2022-08-27T00:23:33;9.00;;;8.10;;
12302;SDS011;6214;48.012;7.862;2022-08-27T00:26:01;9.07;;;8.18;;
12302;SDS011;6214;48.012;7.862;2022-08-27T00:28:28;8.38;;;7.50;;
12302;SDS011;6214;48.012;7.862;2022-08-27T00:30:56;8.63;;;7.72;;
12302;SDS011;6214;48.012;7.862;2022-08-27T00:33:23;8.82;;;7.93;;
12302;SDS011;6214;48.012;7.862;2022-08-27T00:35:51;8.95;;;8.02;;
12302;SDS011;6214;48.012;7.862;2022-08-27T00:38:19;9.40;;;8.10;;
12302;SDS011;6214;48.012;7.862;2022-08-27T00:40:47;9.18;;;8.15;;
12302;SDS011;6214;48.012;7.862;2022-08-27T00:43:25;8.80;;;7.80;;
12302;SDS011;6214;48.012;7.862;2022-08-27T00:45:55;9.27;;;7.90;;
12302;SDS011;6214;48.012;7.862;2022-08-27T00:48:30;9.02;;;8.20;;
12302;SDS011;6214;48.012;7.862;2022-08-27T00:51:00;10.48;;;8.65;;
12302;SDS011;6214;48.012;7.862;2022-08-27T00:53:29;8.70;;;7.90;;
12302;SDS011;6214;48.012;7.862;2022-08-27T00:56:03;8.68;;;7.47;;
12302;SDS011;6214;48.012;7.862;2022-08-27T00:58:37;8.57;;;7.72;;
12302;SDS011;6214;48.012;7.862;2022-08-27T01:01:07;8.80;;;7.90;;
12302;SDS011;6214;48.012;7.862;2022-08-27T01:03:37;8.23;;;7.35;;
12302;SDS011;6214;48.012;7.862;2022-08-27T01:06:05;9.70;;;7.90;;
12302;SDS011;6214;48.012;7.862;2022-08-27T01:08:49;8.20;;;7.40;;
12302;SDS011;6214;48.012;7.862;2022-08-27T01:11:19;9.13;;;7.47;;
12302;SDS011;6214;48.012;7.862;2022-08-27T01:13:47;8.48;;;7.68;;
12302;SDS011;6214;48.012;7.862;2022-08-27T01:16:27;10.70;;;7.95;;
12302;SDS011;6214;48.012;7.862;2022-08-27T01:18:58;8.50;;;7.60;;
12302;SDS011;6214;48.012;7.862;2022-08-27T01:24:03;8.15;;;7.05;;
12302;SDS011;6214;48.012;7.862;2022-08-27T01:26:51;8.73;;;7.82;;
12302;SDS011;6214;48.012;7.862;2022-08-27T01:29:18;8.63;;;7.78;;
12302;SDS011;6214;48.012;7.862;2022-08-27T01:31:45;8.80;;;7.70;;
12302;SDS011;6214;48.012;7.862;2022-08-27T01:34:13;8.52;;;7.57;;
12302;SDS011;6214;48.012;7.862;2022-08-27T01:36:40;8.60;;;7.70;;
12302;SDS011;6214;48.012;7.862;2022-08-27T01:39:07;8.20;;;7.40;;
12302;SDS011;6214;48.012;7.862;2022-08-27T01:41:34;11.45;;;7.72;;
12302;SDS011;6214;48.012;7.862;2022-08-27T01:44:02;9.52;;;8.55;;
12302;SDS011;6214;48.012;7.862;2022-08-27T01:46:29;8.80;;;7.90;;
12302;SDS011;6214;48.012;7.862;2022-08-27T01:48:56;9.35;;;8.45;;
12302;SDS011;6214;48.012;7.862;2022-08-27T01:51:23;9.18;;;7.72;;
12302;SDS011;6214;48.012;7.862;2022-08-27T01:53:50;8.45;;;7.65;;
12302;SDS011;6214;48.012;7.862;2022-08-27T01:56:17;8.68;;;7.60;;
12302;SDS011;6214;48.012;7.862;2022-08-27T01:58:44;8.73;;;7.50;;
12302;SDS011;6214;48.012;7.862;2022-08-27T02:01:13;8.98;;;7.90;;
12302;SDS011;6214;48.012;7.862;2022-08-27T02:03:44;8.13;;;7.30;;
12302;SDS011;6214;48.012;7.862;2022-08-27T02:06:13;8.40;;;7.50;;
12302;SDS011;6214;48.012;7.862;2022-08-27T02:08:40;8.80;;;7.90;;
12302;SDS011;6214;48.012;7.862;2022-08-27T02:11:07;8.23;;;7.43;;
12302;SDS011;6214;48.012;7.862;2022-08-27T02:13:35;8.80;;;7.63;;
12302;SDS011;6214;48.012;7.862;2022-08-27T02:16:02;8.18;;;7.38;;
12302;SDS011;6214;48.012;7.862;2022-08-27T02:18:30;8.43;;;7.63;;
12302;SDS011;6214;48.012;7.862;2022-08-27T02:20:57;8.80;;;7.90;;
12302;SDS011;6214;48.012;7.862;2022-08-27T02:23:24;9.63;;;7.97;;
12302;SDS011;6214;48.012;7.862;2022-08-27T02:25:51;8.80;;;7.90;;
12302;SDS011;6214;48.012;7.862;2022-08-27T02:28:19;9.05;;;8.25;;
12302;SDS011;6214;48.012;7.862;2022-08-27T02:30:46;8.35;;;7.53;;
12302;SDS011;6214;48.012;7.862;2022-08-27T02:33:13;8.63;;;7.80;;
12302;SDS011;6214;48.012;7.862;2022-08-27T02:35:40;9.00;;;8.10;;
12302;SDS011;6214;48.012;7.862;2022-08-27T02:38:10;8.60;;;7.40;;
12302;SDS011;6214;48.012;7.862;2022-08-27T02:40:38;8.18;;;7.38;;
12302;SDS011;6214;48.012;7.862;2022-08-27T02:43:05;8.50;;;7.60;;
12302;SDS011;6214;48.012;7.862;2022-08-27T02:45:33;8.45;;;7.32;;
12302;SDS011;6214;48.012;7.862;2022-08-27T02:48:03;8.88;;;7.72;;
12302;SDS011;6214;48.012;7.862;2022-08-27T02:50:30;8.27;;;7.20;;
12302;SDS011;6214;48.012;7.862;2022-08-27T02:52:58;8.88;;;7.97;;
12302;SDS011;6214;48.012;7.862;2022-08-27T02:55:27;8.93;;;7.93;;
12302;SDS011;6214;48.012;7.862;2022-08-27T02:57:55;8.75;;;7.85;;
12302;SDS011;6214;48.012;7.862;2022-08-27T03:00:23;8.82;;;7.93;;
12302;SDS011;6214;48.012;7.862;2022-08-27T03:02:50;9.02;;;8.05;;
12302;SDS011;6214;48.012;7.862;2022-08-27T03:05:18;9.20;;;8.30;;
12302;SDS011;6214;48.012;7.862;2022-08-27T03:07:45;9.10;;;8.10;;
12302;SDS011;6214;48.012;7.862;2022-08-27T03:10:12;9.85;;;8.48;;
12302;SDS011;6214;48.012;7.862;2022-08-27T03:12:41;9.30;;;8.40;;
12302;SDS011;6214;48.012;7.862;2022-08-27T03:15:10;9.90;;;8.40;;
12302;SDS011;6214;48.012;7.862;2022-08-27T03:17:41;8.83;;;7.93;;
12302;SDS011;6214;48.012;7.862;2022-08-27T03:20:27;8.95;;;8.10;;
12302;SDS011;6214;48.012;7.862;2022-08-27T03:22:54;8.80;;;7.90;;
12302;SDS011;6214;48.012;7.862;2022-08-27T03:25:21;9.50;;;7.93;;
12302;SDS011;6214;48.012;7.862;2022-08-27T03:27:48;9.00;;;8.10;;
12302;SDS011;6214;48.012;7.862;2022-08-27T03:30:16;9.27;;;8.38;;
12302;SDS011;6214;48.012;7.862;2022-08-27T03:32:45;10.02;;;9.02;;
12302;SDS011;6214;48.012;7.862;2022-08-27T03:35:12;9.30;;;8.40;;
12302;SDS011;6214;48.012;7.862;2022-08-27T03:37:40;9.80;;;8.88;;
12302;SDS011;6214;48.012;7.862;2022-08-27T03:40:07;9.63;;;8.70;;
12302;SDS011;6214;48.012;7.862;2022-08-27T03:42:35;10.38;;;9.35;;
12302;SDS011;6214;48.012;7.862;2022-08-27T03:45:04;10.30;;;9.30;;
12302;SDS011;6214;48.012;7.862;2022-08-27T03:47:32;10.30;;;9.30;;
12302;SDS011;6214;48.012;7.862;2022-08-27T03:49:59;10.15;;;9.13;;
12302;SDS011;6214;48.012;7.862;2022-08-27T03:52:27;10.20;;;9.20;;
12302;SDS011;6214;48.012;7.862;2022-08-27T03:54:55;9.77;;;8.88;;
12302;SDS011;6214;48.012;7.862;2022-08-27T03:57:23;10.77;;;9.20;;
12302;SDS011;6214;48.012;7.862;2022-08-27T03:59:50;11.90;;;9.50;;
12302;SDS011;6214;48.012;7.862;2022-08-27T04:02:19;13.60;;;9.52;;
12302;SDS011;6214;48.012;7.862;2022-08-27T04:04:46;9.98;;;8.90;;
12302;SDS011;6214;48.012;7.862;2022-08-27T04:07:13;10.50;;;9.48;;
12302;SDS011;6214;48.012;7.862;2022-08-27T04:09:40;11.38;;;10.27;;
12302;SDS011;6214;48.012;7.862;2022-08-27T04:12:07;10.65;;;9.65;;
12302;SDS011;6214;48.012;7.862;2022-08-27T04:14:34;11.20;;;10.10;;
12302;SDS011;6214;48.012;7.862;2022-08-27T04:17:01;10.38;;;9.38;;
12302;SDS011;6214;48.012;7.862;2022-08-27T04:19:29;10.50;;;9.50;;
12302;SDS011;6214;48.012;7.862;2022-08-27T04:21:59;11.43;;;10.32;;
12302;SDS011;6214;48.012;7.862;2022-08-27T04:24:28;10.30;;;9.20;;
12302;SDS011;6214;48.012;7.862;2022-08-27T04:26:56;11.13;;;10.05;;
12302;SDS011;6214;48.012;7.862;2022-08-27T04:29:23;10.10;;;9.10;;
12302;SDS011;6214;48.012;7.862;2022-08-27T04:31:51;9.98;;;9.00;;
12302;SDS011;6214;48.012;7.862;2022-08-27T04:34:18;10.20;;;9.20;;
12302;SDS011;6214;48.012;7.862;2022-08-27T04:36:45;10.18;;;9.02;;
12302;SDS011;6214;48.012;7.862;2022-08-27T04:39:13;9.77;;;8.82;;
12302;SDS011;6214;48.012;7.862;2022-08-27T04:41:40;9.70;;;8.80;;
12302;SDS011;6214;48.012;7.862;2022-08-27T04:44:08;10.40;;;9.40;;
12302;SDS011;6214;48.012;7.862;2022-08-27T04:46:37;12.75;;;9.55;;
12302;SDS011;6214;48.012;7.862;2022-08-27T04:49:09;10.98;;;9.75;;
12302;SDS011;6214;48.012;7.862;2022-08-27T04:51:38;10.50;;;9.50;;
12302;SDS011;6214;48.012;7.862;2022-08-27T04:54:07;9.55;;;8.55;;
12302;SDS011;6214;48.012;7.862;2022-08-27T04:56:35;9.80;;;8.68;;
12302;SDS011;6214;48.012;7.862;2022-08-27T04:59:03;10.00;;;9.10;;
12302;SDS011;6214;48.012;7.862;2022-08-27T05:01:33;10.27;;;9.18;;
12302;SDS011;6214;48.012;7.862;2022-08-27T05:04:01;11.52;;;9.38;;
12302;SDS011;6214;48.012;7.862;2022-08-27T05:06:28;11.32;;;10.23;;
12302;SDS011;6214;48.012;7.862;2022-08-27T05:08:56;10.48;;;9.45;;
12302;SDS011;6214;48.012;7.862;2022-08-27T05:11:24;9.75;;;8.85;;
12302;SDS011;6214;48.012;7.862;2022-08-27T05:13:57;10.18;;;9.10;;
12302;SDS011;6214;48.012;7.862;2022-08-27T05:16:24;10.10;;;9.20;;
12302;SDS011;6214;48.012;7.862;2022-08-27T05:18:51;10.68;;;9.68;;
12302;SDS011;6214;48.012;7.862;2022-08-27T05:21:20;11.90;;;10.60;;
12302;SDS011;6214;48.012;7.862;2022-08-27T05:23:54;11.40;;;10.30;;
12302;SDS011;6214;48.012;7.862;2022-08-27T05:26:22;11.10;;;10.00;;
12302;SDS011;6214;48.012;7.862;2022-08-27T05:28:49;11.20;;;10.10;;
12302;SDS011;6214;48.012;7.862;2022-08-27T05:31:17;10.93;;;9.93;;
12302;SDS011;6214;48.012;7.862;2022-08-27T05:33:45;11.80;;;10.60;;
12302;SDS011;6214;48.012;7.862;2022-08-27T05:36:22;11.10;;;10.10;;
12302;SDS011;6214;48.012;7.862;2022-08-27T05:38:52;12.47;;;11.27;;
12302;SDS011;6214;48.012;7.862;2022-08-27T05:41:21;12.40;;;11.20;;
12302;SDS011;6214;48.012;7.862;2022-08-27T05:44:01;14.10;;;12.80;;
12302;SDS011;6214;48.012;7.862;2022-08-27T05:46:51;13.85;;;12.45;;
12302;SDS011;6214;48.012;7.862;2022-08-27T05:49:18;14.50;;;13.10;;
12302;SDS011;6214;48.012;7.862;2022-08-27T05:51:44;13.90;;;12.50;;
12302;SDS011;6214;48.012;7.862;2022-08-27T05:54:11;14.43;;;12.75;;
12302;SDS011;6214;48.012;7.862;2022-08-27T05:56:45;15.13;;;13.63;;
12302;SDS011;6214;48.012;7.862;2022-08-27T05:59:13;14.43;;;13.02;;
12302;SDS011;6214;48.012;7.862;2022-08-27T06:02:00;14.32;;;13.02;;
12302;SDS011;6214;48.012;7.862;2022-08-27T06:04:27;14.50;;;13.10;;
12302;SDS011;6214;48.012;7.862;2022-08-27T06:06:55;15.13;;;13.63;;
12302;SDS011;6214;48.012;7.862;2022-08-27T06:09:23;14.75;;;13.35;;
12302;SDS011;6214;48.012;7.862;2022-08-27T06:11:52;15.10;;;13.80;;
12302;SDS011;6214;48.012;7.862;2022-08-27T06:14:21;14.60;;;13.20;;
12302;SDS011;6214;48.012;7.862;2022-08-27T06:16:48;14.70;;;13.30;;
12302;SDS011;6214;48.012;7.862;2022-08-27T06:19:15;14.82;;;13.35;;
12302;SDS011;6214;48.012;7.862;2022-08-27T06:21:42;13.90;;;12.60;;
12302;SDS011;6214;48.012;7.862;2022-08-27T06:24:10;14.63;;;13.23;;
12302;SDS011;6214;48.012;7.862;2022-08-27T06:26:39;14.00;;;12.60;;
12302;SDS011;6214;48.012;7.862;2022-08-27T06:29:07;13.53;;;12.33;;
12302;SDS011;6214;48.012;7.862;2022-08-27T06:31:35;14.50;;;13.02;;
12302;SDS011;6214;48.012;7.862;2022-08-27T06:34:06;14.35;;;12.95;;
12302;SDS011;6214;48.012;7.862;2022-08-27T06:36:35;14.35;;;12.85;;
12302;SDS011;6214;48.012;7.862;2022-08-27T06:39:07;14.02;;;12.73;;
12302;SDS011;6214;48.012;7.862;2022-08-27T06:41:39;15.07;;;13.57;;
12302;SDS011;6214;48.012;7.862;2022-08-27T06:44:07;15.32;;;13.73;;
12302;SDS011;6214;48.012;7.862;2022-08-27T06:46:34;15.20;;;13.90;;
12302;SDS011;6214;48.012;7.862;2022-08-27T06:49:02;14.32;;;13.02;;
12302;SDS011;6214;48.012;7.862;2022-08-27T06:51:30;14.18;;;12.70;;
12302;SDS011;6214;48.012;7.862;2022-08-27T06:54:00;15.00;;;13.60;;
12302;SDS011;6214;48.012;7.862;2022-08-27T06:56:30;15.75;;;14.25;;
12302;SDS011;6214;48.012;7.862;2022-08-27T06:58:59;14.98;;;13.50;;
12302;SDS011;6214;48.012;7.862;2022-08-27T07:01:31;15.65;;;14.15;;
12302;SDS011;6214;48.012;7.862;2022-08-27T07:04:03;14.80;;;13.40;;
12302;SDS011;6214;48.012;7.862;2022-08-27T07:06:32;14.45;;;13.15;;
12302;SDS011;6214;48.012;7.862;2022-08-27T07:09:00;15.50;;;13.90;;
12302;SDS011;6214;48.012;7.862;2022-08-27T07:11:28;14.77;;;13.38;;
12302;SDS011;6214;48.012;7.862;2022-08-27T07:13:57;14.90;;;13.40;;
12302;SDS011;6214;48.012;7.862;2022-08-27T07:16:25;16.88;;;13.18;;
12302;SDS011;6214;48.012;7.862;2022-08-27T07:18:56;14.70;;;13.38;;
12302;SDS011;6214;48.012;7.862;2022-08-27T07:21:29;14.98;;;13.38;;
12302;SDS011;6214;48.012;7.862;2022-08-27T07:23:56;14.15;;;12.85;;
12302;SDS011;6214;48.012;7.862;2022-08-27T07:26:25;13.55;;;12.25;;
12302;SDS011;6214;48.012;7.862;2022-08-27T07:28:53;15.40;;;13.80;;
12302;SDS011;6214;48.012;7.862;2022-08-27T07:31:21;14.82;;;13.32;;
12302;SDS011;6214;48.012;7.862;2022-08-27T07:33:49;14.85;;;13.45;;
12302;SDS011;6214;48.012;7.862;2022-08-27T07:36:19;15.32;;;13.93;;
12302;SDS011;6214;48.012;7.862;2022-08-27T07:38:47;15.30;;;13.80;;
12302;SDS011;6214;48.012;7.862;2022-08-27T07:41:26;13.35;;;12.10;;
12302;SDS011;6214;48.012;7.862;2022-08-27T07:44:00;14.60;;;13.20;;
12302;SDS011;6214;48.012;7.862;2022-08-27T07:46:51;14.20;;;12.80;;
12302;SDS011;6214;48.012;7.862;2022-08-27T07:49:23;15.00;;;13.50;;
12302;SDS011;6214;48.012;7.862;2022-08-27T07:51:52;13.90;;;12.60;;
12302;SDS011;6214;48.012;7.862;2022-08-27T07:54:20;13.50;;;12.10;;
12302;SDS011;6214;48.012;7.862;2022-08-27T07:56:48;14.65;;;13.35;;
12302;SDS011;6214;48.012;7.862;2022-08-27T07:59:21;14.95;;;13.55;;
12302;SDS011;6214;48.012;7.862;2022-08-27T08:01:50;15.02;;;13.48;;
12302;SDS011;6214;48.012;7.862;2022-08-27T08:04:17;14.00;;;12.60;;
12302;SDS011;6214;48.012;7.862;2022-08-27T08:06:46;13.38;;;12.07;;
12302;SDS011;6214;48.012;7.862;2022-08-27T08:09:13;13.30;;;12.10;;
12302;SDS011;6214;48.012;7.862;2022-08-27T08:11:40;13.70;;;12.50;;
12302;SDS011;6214;48.012;7.862;2022-08-27T08:14:08;13.77;;;12.40;;
12302;SDS011;6214;48.012;7.862;2022-08-27T08:16:35;14.52;;;13.02;;
12302;SDS011;6214;48.012;7.862;2022-08-27T08:19:02;13.15;;;11.90;;
12302;SDS011;6214;48.012;7.862;2022-08-27T08:21:29;13.40;;;12.10;;
12302;SDS011;6214;48.012;7.862;2022-08-27T08:23:56;14.30;;;12.90;;
12302;SDS011;6214;48.012;7.862;2022-08-27T08:26:24;14.02;;;12.60;;
12302;SDS011;6214;48.012;7.862;2022-08-27T08:28:51;14.55;;;13.05;;
12302;SDS011;6214;48.012;7.862;2022-08-27T08:31:18;15.00;;;13.50;;
12302;SDS011;6214;48.012;7.862;2022-08-27T08:33:45;14.77;;;13.20;;
12302;SDS011;6214;48.012;7.862;2022-08-27T08:36:14;15.43;;;14.02;;
12302;SDS011;6214;48.012;7.862;2022-08-27T08:38:43;14.55;;;13.15;;
12302;SDS011;6214;48.012;7.862;2022-08-27T08:43:56;16.25;;;14.55;;
12302;SDS011;6214;48.012;7.862;2022-08-27T08:46:39;15.80;;;14.20;;
12302;SDS011;6214;48.012;7.862;2022-08-27T08:49:27;15.57;;;13.98;;
12302;SDS011;6214;48.012;7.862;2022-08-27T08:51:57;15.40;;;14.00;;
12302;SDS011;6214;48.012;7.862;2022-08-27T08:54:34;16.10;;;14.60;;
12302;SDS011;6214;48.012;7.862;2022-08-27T08:57:05;14.80;;;13.40;;
12302;SDS011;6214;48.012;7.862;2022-08-27T08:59:45;15.63;;;14.23;;
12302;SDS011;6214;48.012;7.862;2022-08-27T09:02:21;15.02;;;13.63;;
12302;SDS011;6214;48.012;7.862;2022-08-27T09:04:51;15.40;;;13.90;;
12302;SDS011;6214;48.012;7.862;2022-08-27T09:07:31;14.73;;;13.30;;
12302;SDS011;6214;48.012;7.862;2022-08-27T09:13:01;13.57;;;12.27;;
12302;SDS011;6214;48.012;7.862;2022-08-27T09:15:32;13.80;;;12.50;;
12302;SDS011;6214;48.012;7.862;2022-08-27T09:18:08;13.48;;;12.18;;
12302;SDS011;6214;48.012;7.862;2022-08-27T09:20:41;13.63;;;12.35;;
12302;SDS011;6214;48.012;7.862;2022-08-27T09:23:25;13.10;;;11.80;;
12302;SDS011;6214;48.012;7.862;2022-08-27T09:25:58;14.65;;;12.20;;
12302;SDS011;6214;48.012;7.862;2022-08-27T09:28:27;14.65;;;11.90;;
12302;SDS011;6214;48.012;7.862;2022-08-27T09:31:15;11.30;;;10.20;;
12302;SDS011;6214;48.012;7.862;2022-08-27T09:33:45;11.43;;;10.32;;
12302;SDS011;6214;48.012;7.862;2022-08-27T09:36:22;12.60;;;10.80;;
12302;SDS011;6214;48.012;7.862;2022-08-27T09:38:51;11.75;;;10.55;;
12302;SDS011;6214;48.012;7.862;2022-08-27T09:41:25;11.75;;;10.65;;
12302;SDS011;6214;48.012;7.862;2022-08-27T09:44:09;11.90;;;10.50;;
12302;SDS011;6214;48.012;7.862;2022-08-27T09:46:38;11.20;;;10.02;;
12302;SDS011;6214;48.012;7.862;2022-08-27T09:49:09;10.77;;;9.73;;
12302;SDS011;6214;48.012;7.862;2022-08-27T09:51:38;11.00;;;9.90;;
12302;SDS011;6214;48.012;7.862;2022-08-27T09:54:08;11.15;;;10.15;;
12302;SDS011;6214;48.012;7.862;2022-08-27T09:56:38;11.10;;;10.00;;
12302;SDS011;6214;48.012;7.862;2022-08-27T09:59:22;10.90;;;9.80;;
12302;SDS011;6214;48.012;7.862;2022-08-27T10:02:04;10.98;;;9.80;;
12302;SDS011;6214;48.012;7.862;2022-08-27T10:04:41;10.25;;;9.25;;
12302;SDS011;6214;48.012;7.862;2022-08-27T10:23:53;11.38;;;9.10;;
12302;SDS011;6214;48.012;7.862;2022-08-27T10:26:34;10.98;;;9.43;;
12302;SDS011;6214;48.012;7.862;2022-08-27T10:29:20;10.30;;;9.30;;
12302;SDS011;6214;48.012;7.862;2022-08-27T10:34:41;9.40;;;8.40;;
12302;SDS011;6214;48.012;7.862;2022-08-27T10:51:16;10.00;;;8.87;;
12302;SDS011;6214;48.012;7.862;2022-08-27T10:57:13;9.70;;;8.70;;
12302;SDS011;6214;48.012;7.862;2022-08-27T11:00:18;9.00;;;7.50;;
12302;SDS011;6214;48.012;7.862;2022-08-27T11:05:47;9.88;;;8.10;;
12302;SDS011;6214;48.012;7.862;2022-08-27T11:08:17;8.57;;;7.60;;
12302;SDS011;6214;48.012;7.862;2022-08-27T11:10:49;8.68;;;7.53;;
12302;SDS011;6214;48.012;7.862;2022-08-27T11:13:33;8.60;;;7.32;;
12302;SDS011;6214;48.012;7.862;2022-08-27T11:16:12;10.70;;;8.80;;
12302;SDS011;6214;48.012;7.862;2022-08-27T11:18:53;8.80;;;7.80;;
12302;SDS011;6214;48.012;7.862;2022-08-27T11:21:31;9.88;;;8.75;;
12302;SDS011;6214;48.012;7.862;2022-08-27T11:26:42;8.80;;;7.90;;
12302;SDS011;6214;48.012;7.862;2022-08-27T11:29:14;9.43;;;7.72;;
12302;SDS011;6214;48.012;7.862;2022-08-27T11:34:55;8.60;;;7.70;;
12302;SDS011;6214;48.012;7.862;2022-08-27T11:43:03;11.02;;;9.82;;
12302;SDS011;6214;48.012;7.862;2022-08-27T11:45:34;10.30;;;9.30;;
12302;SDS011;6214;48.012;7.862;2022-08-27T11:48:20;10.00;;;8.97;;
12302;SDS011;6214;48.012;7.862;2022-08-27T11:53:25;10.20;;;9.20;;
12302;SDS011;6214;48.012;7.862;2022-08-27T11:55:57;11.00;;;9.90;;
12302;SDS011;6214;48.012;7.862;2022-08-27T11:58:42;11.20;;;10.10;;
12302;SDS011;6214;48.012;7.862;2022-08-27T12:01:26;11.25;;;10.00;;
12302;SDS011;6214;48.012;7.862;2022-08-27T12:04:39;11.63;;;10.43;;
12302;SDS011;6214;48.012;7.862;2022-08-27T12:07:06;11.32;;;10.20;;
12302;SDS011;6214;48.012;7.862;2022-08-27T12:09:53;12.32;;;9.63;;
12302;SDS011;6214;48.012;7.862;2022-08-27T12:15:17;10.70;;;9.60;;
12302;SDS011;6214;48.012;7.862;2022-08-27T12:18:03;11.05;;;9.95;;
12302;SDS011;6214;48.012;7.862;2022-08-27T12:20:54;9.80;;;8.80;;
12302;SDS011;6214;48.012;7.862;2022-08-27T12:23:46;11.70;;;10.50;;
12302;SDS011;6214;48.012;7.862;2022-08-27T12:26:37;10.95;;;9.80;;
12302;SDS011;6214;48.012;7.862;2022-08-27T12:37:30;9.68;;;8.68;;
12302;SDS011;6214;48.012;7.862;2022-08-27T12:40:12;9.52;;;8.60;;
12302;SDS011;6214;48.012;7.862;2022-08-27T12:43:04;8.90;;;8.00;;
12302;SDS011;6214;48.012;7.862;2022-08-27T12:45:44;9.40;;;8.50;;
12302;SDS011;6214;48.012;7.862;2022-08-27T12:48:24;9.75;;;8.82;;
12302;SDS011;6214;48.012;7.862;2022-08-27T12:51:02;10.38;;;9.38;;
12302;SDS011;6214;48.012;7.862;2022-08-27T12:56:42;10.30;;;9.30;;
12302;SDS011;6214;48.012;7.862;2022-08-27T13:04:45;11.10;;;10.00;;
12302;SDS011;6214;48.012;7.862;2022-08-27T13:07:32;12.00;;;10.80;;
12302;SDS011;6214;48.012;7.862;2022-08-27T13:10:13;13.40;;;12.20;;
12302;SDS011;6214;48.012;7.862;2022-08-27T13:12:40;13.35;;;12.05;;
12302;SDS011;6214;48.012;7.862;2022-08-27T13:15:09;14.20;;;12.70;;
12302;SDS011;6214;48.012;7.862;2022-08-27T13:17:42;13.50;;;12.30;;
12302;SDS011;6214;48.012;7.862;2022-08-27T13:20:21;13.85;;;12.55;;
12302;SDS011;6214;48.012;7.862;2022-08-27T13:22:49;14.60;;;13.30;;
12302;SDS011;6214;48.012;7.862;2022-08-27T13:27:51;12.30;;;11.10;;
12302;SDS011;6214;48.012;7.862;2022-08-27T13:30:20;12.30;;;11.10;;
12302;SDS011;6214;48.012;7.862;2022-08-27T13:33:02;12.05;;;10.85;;
12302;SDS011;6214;48.012;7.862;2022-08-27T13:35:33;12.20;;;11.00;;
12302;SDS011;6214;48.012;7.862;2022-08-27T13:38:00;11.63;;;10.43;;
12302;SDS011;6214;48.012;7.862;2022-08-27T13:43:03;11.30;;;10.20;;
12302;SDS011;6214;48.012;7.862;2022-08-27T13:45:36;11.45;;;10.35;;
12302;SDS011;6214;48.012;7.862;2022-08-27T13:48:04;11.27;;;10.17;;
12302;SDS011;6214;48.012;7.862;2022-08-27T13:50:32;11.43;;;10.23;;
12302;SDS011;6214;48.012;7.862;2022-08-27T13:53:05;11.18;;;10.07;;
12302;SDS011;6214;48.012;7.862;2022-08-27T13:55:53;11.07;;;10.07;;
12302;SDS011;6214;48.012;7.862;2022-08-27T13:58:23;10.52;;;9.52;;
12302;SDS011;6214;48.012;7.862;2022-08-27T14:00:52;10.20;;;9.20;;
12302;SDS011;6214;48.012;7.862;2022-08-27T14:03:24;10.32;;;9.35;;
12302;SDS011;6214;48.012;7.862;2022-08-27T14:05:55;12.60;;;9.25;;
12302;SDS011;6214;48.012;7.862;2022-08-27T14:08:22;10.50;;;9.50;;
12302;SDS011;6214;48.012;7.862;2022-08-27T14:11:00;11.20;;;10.10;;
12302;SDS011;6214;48.012;7.862;2022-08-27T14:13:40;10.40;;;9.05;;
12302;SDS011;6214;48.012;7.862;2022-08-27T14:16:13;10.13;;;9.13;;
12302;SDS011;6214;48.012;7.862;2022-08-27T14:18:51;10.57;;;9.50;;
12302;SDS011;6214;48.012;7.862;2022-08-27T14:21:27;12.50;;;9.60;;
12302;SDS011;6214;48.012;7.862;2022-08-27T14:23:55;12.65;;;11.32;;
12302;SDS011;6214;48.012;7.862;2022-08-27T14:26:24;12.10;;;10.90;;
12302;SDS011;6214;48.012;7.862;2022-08-27T14:28:52;13.07;;;11.43;;
12302;SDS011;6214;48.012;7.862;2022-08-27T14:31:20;13.07;;;11.77;;
12302;SDS011;6214;48.012;7.862;2022-08-27T14:33:48;13.65;;;12.25;;
12302;SDS011;6214;48.012;7.862;2022-08-27T14:36:17;13.53;;;12.13;;
12302;SDS011;6214;48.012;7.862;2022-08-27T14:38:45;15.38;;;12.40;;
12302;SDS011;6214;48.012;7.862;2022-08-27T14:41:15;13.63;;;12.32;;
12302;SDS011;6214;48.012;7.862;2022-08-27T14:44:03;13.73;;;12.43;;
12302;SDS011;6214;48.012;7.862;2022-08-27T14:46:32;14.02;;;12.73;;
12302;SDS011;6214;48.012;7.862;2022-08-27T14:49:10;12.57;;;11.37;;
12302;SDS011;6214;48.012;7.862;2022-08-27T14:51:41;11.70;;;10.50;;
12302;SDS011;6214;48.012;7.862;2022-08-27T14:54:11;9.70;;;8.70;;
12302;SDS011;6214;48.012;7.862;2022-08-27T14:56:38;11.43;;;8.32;;
12302;SDS011;6214;48.012;7.862;2022-08-27T14:59:05;10.70;;;8.60;;
12302;SDS011;6214;48.012;7.862;2022-08-27T15:01:32;10.63;;;9.20;;
12302;SDS011;6214;48.012;7.862;2022-08-27T15:04:03;10.77;;;9.43;;
12302;SDS011;6214;48.012;7.862;2022-08-27T15:06:30;10.57;;;8.10;;
12302;SDS011;6214;48.012;7.862;2022-08-27T15:08:58;12.60;;;8.80;;
12302;SDS011;6214;48.012;7.862;2022-08-27T15:11:27;9.85;;;8.85;;
12302;SDS011;6214;48.012;7.862;2022-08-27T15:13:58;10.45;;;9.20;;
12302;SDS011;6214;48.012;7.862;2022-08-27T15:16:29;17.55;;;9.40;;
12302;SDS011;6214;48.012;7.862;2022-08-27T15:19:01;14.63;;;8.82;;
12302;SDS011;6214;48.012;7.862;2022-08-27T15:21:28;10.85;;;7.20;;
12302;SDS011;6214;48.012;7.862;2022-08-27T15:23:57;8.23;;;6.43;;
12302;SDS011;6214;48.012;7.862;2022-08-27T15:26:26;9.40;;;6.30;;
12302;SDS011;6214;48.012;7.862;2022-08-27T15:28:54;6.50;;;5.50;;
12302;SDS011;6214;48.012;7.862;2022-08-27T15:31:21;8.70;;;6.18;;
12302;SDS011;6214;48.012;7.862;2022-08-27T15:33:48;8.98;;;5.20;;
12302;SDS011;6214;48.012;7.862;2022-08-27T15:36:15;9.85;;;6.07;;
12302;SDS011;6214;48.012;7.862;2022-08-27T15:38:42;9.75;;;6.70;;
12302;SDS011;6214;48.012;7.862;2022-08-27T15:41:09;8.20;;;6.33;;
12302;SDS011;6214;48.012;7.862;2022-08-27T15:43:37;9.63;;;6.45;;
12302;SDS011;6214;48.012;7.862;2022-08-27T15:46:04;7.40;;;5.17;;
12302;SDS011;6214;48.012;7.862;2022-08-27T15:48:31;9.30;;;5.87;;
12302;SDS011;6214;48.012;7.862;2022-08-27T15:51:00;7.10;;;5.15;;
12302;SDS011;6214;48.012;7.862;2022-08-27T15:53:31;6.63;;;5.00;;
12302;SDS011;6214;48.012;7.862;2022-08-27T15:55:59;5.60;;;4.20;;
12302;SDS011;6214;48.012;7.862;2022-08-27T15:58:29;5.80;;;4.00;;
12302;SDS011;6214;48.012;7.862;2022-08-27T16:01:01;6.88;;;4.38;;
12302;SDS011;6214;48.012;7.862;2022-08-27T16:03:34;7.22;;;4.10;;
12302;SDS011;6214;48.012;7.862;2022-08-27T16:06:02;5.55;;;3.83;;
12302;SDS011;6214;48.012;7.862;2022-08-27T16:08:30;5.88;;;4.40;;
12302;SDS011;6214;48.012;7.862;2022-08-27T16:11:07;5.70;;;3.47;;
12302;SDS011;6214;48.012;7.862;2022-08-27T16:13:34;5.50;;;3.90;;
12302;SDS011;6214;48.012;7.862;2022-08-27T16:16:03;5.90;;;3.83;;
12302;SDS011;6214;48.012;7.862;2022-08-27T16:18:32;5.03;;;3.50;;
12302;SDS011;6214;48.012;7.862;2022-08-27T16:21:00;5.00;;;3.30;;
12302;SDS011;6214;48.012;7.862;2022-08-27T16:23:29;5.20;;;3.40;;
12302;SDS011;6214;48.012;7.862;2022-08-27T16:25:57;4.80;;;2.97;;
12302;SDS011;6214;48.012;7.862;2022-08-27T16:28:25;5.03;;;3.00;;
12302;SDS011;6214;48.012;7.862;2022-08-27T16:30:53;4.90;;;3.40;;
12302;SDS011;6214;48.012;7.862;2022-08-27T16:33:22;5.90;;;3.70;;
12302;SDS011;6214;48.012;7.862;2022-08-27T16:35:49;4.80;;;3.20;;
12302;SDS011;6214;48.012;7.862;2022-08-27T16:38:17;5.10;;;3.28;;